Time;durP1;ratioP1;P1;durP2;ratioP2;P2;SDS_P1;SDS_P2;PMS_P1;PMS_P2;Temp;Humidity;BMP_temperature;BMP_pressure;BME280_temperature;BME280_humidity;BME280_pressure;Samples;Min_cycle;Max_cycle;Signal;HPM_P1;HPM_P2
2021/09/10 00:00:56;;;;;;;;;;;21.30;99.90;;;;;;5078490;28;19908;-83
2021/09/10 00:03:22;;;;;;;;;;;21.30;99.90;;;;;;5077415;28;20010;-83
2021/09/10 00:05:47;;;;;;;;;;;21.30;99.90;;;;;;5078661;28;19908;-83
2021/09/10 00:08:13;;;;;;;;;;;21.30;99.90;;;;;;5078810;28;19947;-83
2021/09/10 00:10:38;;;;;;;;;;;21.30;99.90;;;;;;5078935;28;19917;-82
2021/09/10 00:13:04;;;;;;;;;;;21.20;99.90;;;;;;5076768;28;19909;-82
2021/09/10 00:15:29;;;;;;;;;;;21.20;99.90;;;;;;5076660;28;20376;-82
2021/09/10 00:17:55;;;;;;;;;;;21.20;99.90;;;;;;5076475;28;20360;-81
2021/09/10 00:20:20;;;;;;;;;;;21.20;99.90;;;;;;5076217;28;19909;-82
2021/09/10 00:22:46;;;;;;;;;;;21.20;99.90;;;;;;5077132;28;19908;-81
2021/09/10 00:25:11;;;;;;;;;;;21.20;99.90;;;;;;5076825;28;19995;-81
2021/09/10 00:27:37;;;;;;;;;;;21.20;99.90;;;;;;5076911;28;19947;-81
2021/09/10 00:30:04;;;;;;;;;;;21.20;99.90;;;;;;5079074;28;19916;-82
2021/09/10 00:32:29;;;;;;;;;;;21.20;99.90;;;;;;5081101;28;19951;-81
2021/09/10 00:34:55;;;;;;;;;;;21.20;99.90;;;;;;5078796;28;20010;-81
2021/09/10 00:37:20;;;;;;;;;;;21.20;99.90;;;;;;5079190;28;19908;-81
2021/09/10 00:39:45;;;;;;;;;;;21.10;99.90;;;;;;5078744;28;19996;-82
2021/09/10 00:42:11;;;;;;;;;;;21.10;99.90;;;;;;5079126;28;19912;-81
2021/09/10 00:44:36;;;;;;;;;;;21.00;99.90;;;;;;5079053;28;19919;-81
2021/09/10 00:47:02;;;;;;;;;;;21.00;99.90;;;;;;5079169;28;20360;-81
2021/09/10 00:49:28;;;;;;;;;;;21.00;99.90;;;;;;5082654;28;20007;-82
2021/09/10 00:51:53;;;;;;;;;;;21.00;99.90;;;;;;5081384;28;19920;-81
2021/09/10 00:54:19;;;;;;;;;;;21.00;99.90;;;;;;5081180;28;19908;-82
2021/09/10 00:56:44;;;;;;;;;;;20.90;99.90;;;;;;5081185;28;19915;-82
2021/09/10 00:59:10;;;;;;;;;;;20.90;99.90;;;;;;5080138;28;20023;-82
2021/09/10 01:01:35;;;;;;;;;;;20.90;99.90;;;;;;5080232;28;19909;-82
2021/09/10 01:04:01;;;;;;;;;;;20.90;99.90;;;;;;5080913;28;20046;-82
2021/09/10 01:06:27;;;;;;;;;;;20.90;99.90;;;;;;5080441;28;19915;-82
2021/09/10 01:08:54;;;;;;;;;;;20.90;99.90;;;;;;5080837;28;19916;-82
2021/09/10 01:11:19;;;;;;;;;;;20.90;99.90;;;;;;5080298;28;19917;-83
2021/09/10 01:13:45;;;;;;;;;;;20.90;99.90;;;;;;5081123;28;19974;-82
2021/09/10 01:16:10;;;;;;;;;;;20.90;99.90;;;;;;5080668;28;19909;-83
2021/09/10 01:18:36;;;;;;;;;;;20.90;99.90;;;;;;5079113;28;19909;-82
2021/09/10 01:21:01;;;;;;;;;;;20.90;99.90;;;;;;5080393;28;19932;-82
2021/09/10 01:23:27;;;;;;;;;;;20.90;99.90;;;;;;5080818;28;19964;-82
2021/09/10 01:25:52;;;;;;;;;;;20.80;99.90;;;;;;5080582;28;20380;-82
2021/09/10 01:28:18;;;;;;;;;;;20.80;99.90;;;;;;5080207;28;19908;-82
2021/09/10 01:30:43;;;;;;;;;;;20.80;99.90;;;;;;5078969;28;20372;-82
2021/09/10 01:33:09;;;;;;;;;;;20.80;99.90;;;;;;5080642;28;19915;-82
2021/09/10 01:35:36;;;;;;;;;;;20.70;99.90;;;;;;5079126;28;20368;-82
2021/09/10 01:38:01;;;;;;;;;;;20.70;99.90;;;;;;5078901;28;20385;-81
2021/09/10 01:40:27;;;;;;;;;;;20.70;99.90;;;;;;5077552;28;19919;-82
2021/09/10 01:42:54;;;;;;;;;;;20.60;99.90;;;;;;5079149;28;19940;-81
2021/09/10 01:45:19;;;;;;;;;;;20.60;99.90;;;;;;5079677;28;19909;-82
2021/09/10 01:47:45;;;;;;;;;;;20.60;99.90;;;;;;5079817;28;19908;-82
2021/09/10 01:50:12;;;;;;;;;;;20.60;99.90;;;;;;5079907;28;20422;-82
2021/09/10 01:52:37;;;;;;;;;;;20.60;99.90;;;;;;5079824;28;19923;-83
2021/09/10 01:55:03;;;;;;;;;;;20.60;99.90;;;;;;5079546;28;19912;-82
2021/09/10 01:57:29;;;;;;;;;;;20.60;99.90;;;;;;5079581;28;19916;-82
2021/09/10 01:59:54;;;;;;;;;;;20.70;99.90;;;;;;5079441;28;19999;-81
2021/09/10 02:02:20;;;;;;;;;;;20.70;99.90;;;;;;5079796;28;19961;-82
2021/09/10 02:04:45;;;;;;;;;;;20.70;99.90;;;;;;5079830;28;19909;-82
2021/09/10 02:07:11;;;;;;;;;;;20.70;99.90;;;;;;5078269;28;19908;-82
2021/09/10 02:09:36;;;;;;;;;;;20.60;99.90;;;;;;5079140;28;20177;-83
2021/09/10 02:12:05;;;;;;;;;;;20.60;99.90;;;;;;5079466;28;19916;-82
2021/09/10 02:14:31;;;;;;;;;;;20.60;99.90;;;;;;5078124;28;19908;-82
2021/09/10 02:16:57;;;;;;;;;;;20.60;99.90;;;;;;5079375;28;19909;-82
2021/09/10 02:19:22;;;;;;;;;;;20.70;99.90;;;;;;5077831;28;20365;-82
2021/09/10 02:21:48;;;;;;;;;;;20.60;99.90;;;;;;5078844;28;20310;-82
2021/09/10 02:24:13;;;;;;;;;;;20.60;99.90;;;;;;5077774;28;19980;-82
2021/09/10 02:26:39;;;;;;;;;;;20.60;99.90;;;;;;5081182;28;19944;-83
2021/09/10 02:29:04;;;;;;;;;;;20.60;99.90;;;;;;5078887;28;19958;-82
2021/09/10 02:31:30;;;;;;;;;;;20.50;99.90;;;;;;5077504;28;19908;-82
2021/09/10 02:33:55;;;;;;;;;;;20.50;99.90;;;;;;5079545;28;19909;-82
2021/09/10 02:36:21;;;;;;;;;;;20.50;99.90;;;;;;5077382;28;19908;-83
2021/09/10 02:38:47;;;;;;;;;;;20.50;99.90;;;;;;5079217;28;20214;-82
2021/09/10 02:41:12;;;;;;;;;;;20.50;99.90;;;;;;5078326;28;20657;-82
2021/09/10 02:43:38;;;;;;;;;;;20.50;99.90;;;;;;5078613;28;19909;-82
2021/09/10 02:46:03;;;;;;;;;;;20.50;99.90;;;;;;5078918;28;19909;-83
2021/09/10 02:48:29;;;;;;;;;;;20.50;99.90;;;;;;5077125;28;19920;-82
2021/09/10 02:50:54;;;;;;;;;;;20.50;99.90;;;;;;5077839;28;19908;-81
2021/09/10 02:53:20;;;;;;;;;;;20.50;99.90;;;;;;5077851;28;19912;-82
2021/09/10 02:55:45;;;;;;;;;;;20.50;99.90;;;;;;5078318;28;20280;-82
2021/09/10 02:58:11;;;;;;;;;;;20.50;99.90;;;;;;5078618;28;19962;-82
2021/09/10 03:00:36;;;;;;;;;;;20.50;99.90;;;;;;5078365;28;19915;-82
2021/09/10 03:03:01;;;;;;;;;;;20.60;99.90;;;;;;5079030;28;20314;-82
2021/09/10 03:05:28;;;;;;;;;;;20.60;99.90;;;;;;5078270;28;19913;-82
2021/09/10 03:07:54;;;;;;;;;;;20.60;99.90;;;;;;5078974;28;20391;-82
2021/09/10 03:10:20;;;;;;;;;;;20.60;99.90;;;;;;5077881;28;19920;-82
2021/09/10 03:12:45;;;;;;;;;;;20.60;99.90;;;;;;5078272;28;19909;-82
2021/09/10 03:15:12;;;;;;;;;;;20.60;99.90;;;;;;5078264;28;19991;-82
2021/09/10 03:17:38;;;;;;;;;;;20.60;99.90;;;;;;5076813;28;19908;-82
2021/09/10 03:20:04;;;;;;;;;;;20.60;99.90;;;;;;5074527;28;19916;-81
2021/09/10 03:22:29;;;;;;;;;;;20.70;99.90;;;;;;5076320;28;20356;-81
2021/09/10 03:24:55;;;;;;;;;;;20.60;99.90;;;;;;5075160;28;19912;-82
2021/09/10 03:27:20;;;;;;;;;;;20.70;99.90;;;;;;5076174;28;19915;-81
2021/09/10 03:29:46;;;;;;;;;;;20.70;99.90;;;;;;5075333;28;19913;-81
2021/09/10 03:32:11;;;;;;;;;;;20.60;99.90;;;;;;5076157;28;19909;-81
2021/09/10 03:34:37;;;;;;;;;;;20.60;99.90;;;;;;5076362;28;20007;-81
2021/09/10 03:37:03;;;;;;;;;;;20.60;99.90;;;;;;5075874;28;19912;-81
2021/09/10 03:39:28;;;;;;;;;;;20.50;99.90;;;;;;5075667;28;19909;-81
2021/09/10 03:41:54;;;;;;;;;;;20.50;99.90;;;;;;5076709;28;19909;-81
2021/09/10 03:44:19;;;;;;;;;;;20.50;99.90;;;;;;5075072;28;19908;-82
2021/09/10 03:46:45;;;;;;;;;;;20.40;99.90;;;;;;5074633;28;20007;-81
2021/09/10 03:49:10;;;;;;;;;;;20.40;99.90;;;;;;5074827;28;19938;-82
2021/09/10 03:51:36;;;;;;;;;;;20.40;99.90;;;;;;5075131;28;20011;-81
2021/09/10 03:54:01;;;;;;;;;;;20.40;99.90;;;;;;5074979;28;19948;-81
2021/09/10 03:56:27;;;;;;;;;;;20.40;99.90;;;;;;5074602;28;19919;-81
2021/09/10 03:58:52;;;;;;;;;;;20.40;99.90;;;;;;5075547;28;20515;-81
2021/09/10 04:01:18;;;;;;;;;;;20.40;99.90;;;;;;5075089;28;19909;-81
2021/09/10 04:03:44;;;;;;;;;;;20.40;99.90;;;;;;5077309;28;19958;-81
2021/09/10 04:06:10;;;;;;;;;;;20.40;99.90;;;;;;5083434;28;19931;-82
2021/09/10 04:08:36;;;;;;;;;;;20.40;99.90;;;;;;5081657;28;19923;-82
2021/09/10 04:11:01;;;;;;;;;;;20.40;99.90;;;;;;5081464;28;20003;-82
2021/09/10 04:13:27;;;;;;;;;;;20.40;99.90;;;;;;5081870;28;19919;-82
2021/09/10 04:15:52;;;;;;;;;;;20.30;99.90;;;;;;5080854;28;19955;-82
2021/09/10 04:18:17;;;;;;;;;;;20.30;99.90;;;;;;5081791;28;19969;-82
2021/09/10 04:20:43;;;;;;;;;;;20.30;99.90;;;;;;5081076;28;19916;-82
2021/09/10 04:23:08;;;;;;;;;;;20.20;99.90;;;;;;5081806;28;19954;-82
2021/09/10 04:25:34;;;;;;;;;;;20.20;99.90;;;;;;5081836;28;19930;-82
2021/09/10 04:27:59;;;;;;;;;;;20.20;99.90;;;;;;5080423;28;19917;-82
2021/09/10 04:30:25;;;;;;;;;;;20.20;99.90;;;;;;5081236;28;20007;-82
2021/09/10 04:32:50;;;;;;;;;;;20.10;99.90;;;;;;5081260;28;19975;-82
2021/09/10 04:35:16;;;;;;;;;;;20.10;99.90;;;;;;5081275;28;19917;-82
2021/09/10 04:37:41;;;;;;;;;;;20.10;99.90;;;;;;5081322;28;20391;-82
2021/09/10 04:40:07;;;;;;;;;;;20.10;99.90;;;;;;5080875;28;19908;-82
2021/09/10 04:42:33;;;;;;;;;;;20.00;99.90;;;;;;5081198;28;19965;-82
2021/09/10 04:44:59;;;;;;;;;;;20.00;99.90;;;;;;5080974;28;20334;-81
2021/09/10 04:47:26;;;;;;;;;;;19.80;99.90;;;;;;5081388;28;19908;-82
2021/09/10 04:49:52;;;;;;;;;;;19.70;99.90;;;;;;5080272;28;19919;-82
2021/09/10 04:52:17;;;;;;;;;;;19.60;99.90;;;;;;5080197;28;19987;-82
2021/09/10 04:54:43;;;;;;;;;;;19.50;99.90;;;;;;5081161;28;19948;-82
2021/09/10 04:57:08;;;;;;;;;;;19.40;99.90;;;;;;5080554;28;19908;-82
2021/09/10 04:59:34;;;;;;;;;;;19.30;99.90;;;;;;5080262;28;19948;-82
2021/09/10 05:01:59;;;;;;;;;;;19.20;99.90;;;;;;5079967;28;20015;-82
2021/09/10 05:04:25;;;;;;;;;;;19.20;99.90;;;;;;5080329;28;19909;-81
2021/09/10 05:06:51;;;;;;;;;;;19.20;99.90;;;;;;5079961;28;19982;-82
2021/09/10 05:09:16;;;;;;;;;;;19.20;99.90;;;;;;5078979;28;19917;-81
2021/09/10 05:11:42;;;;;;;;;;;19.30;99.90;;;;;;5077125;28;19977;-82
2021/09/10 05:14:09;;;;;;;;;;;19.30;99.90;;;;;;5078634;28;20296;-82
2021/09/10 05:16:34;;;;;;;;;;;19.30;99.90;;;;;;5076626;28;19963;-82
2021/09/10 05:19:00;;;;;;;;;;;19.40;99.90;;;;;;5076334;28;20284;-82
2021/09/10 05:21:25;;;;;;;;;;;19.50;99.90;;;;;;5077840;28;19992;-81
2021/09/10 05:23:51;;;;;;;;;;;19.60;99.90;;;;;;5078872;28;19908;-82
2021/09/10 05:26:16;;;;;;;;;;;19.70;99.90;;;;;;5079958;28;19916;-82
2021/09/10 05:28:43;;;;;;;;;;;19.80;99.90;;;;;;5080009;28;19916;-83
2021/09/10 05:31:09;;;;;;;;;;;19.90;99.90;;;;;;5079284;28;19916;-82
2021/09/10 05:33:34;;;;;;;;;;;20.00;99.90;;;;;;5079778;28;19909;-82
2021/09/10 05:36:00;;;;;;;;;;;20.20;99.90;;;;;;5079739;28;19995;-81
2021/09/10 05:38:25;;;;;;;;;;;20.30;99.90;;;;;;5079550;28;19916;-81
2021/09/10 05:40:51;;;;;;;;;;;20.50;99.90;;;;;;5076111;28;20339;-80
2021/09/10 05:43:16;;;;;;;;;;;21.00;99.90;;;;;;5079915;28;19908;-81
2021/09/10 05:45:42;;;;;;;;;;;22.00;99.90;;;;;;5079983;28;19994;-81
2021/09/10 05:48:08;;;;;;;;;;;24.50;99.90;;;;;;5080048;28;19909;-82
2021/09/10 05:50:33;;;;;;;;;;;27.50;99.90;;;;;;5079999;28;19912;-83
2021/09/10 05:53:00;;;;;;;;;;;30.10;99.90;;;;;;5080849;28;19976;-82
2021/09/10 05:55:26;;;;;;;;;;;32.00;99.90;;;;;;5080631;28;19908;-82
2021/09/10 05:57:51;;;;;;;;;;;34.00;99.90;;;;;;5080979;28;19930;-82
2021/09/10 06:00:17;;;;;;;;;;;34.70;96.50;;;;;;5080256;28;19909;-82
2021/09/10 06:02:42;;;;;;;;;;;34.30;91.60;;;;;;5079443;28;20015;-82
2021/09/10 06:05:08;;;;;;;;;;;32.40;91.90;;;;;;5079209;28;19915;-82
2021/09/10 06:07:33;;;;;;;;;;;30.70;94.60;;;;;;5079293;28;20057;-82
2021/09/10 06:09:59;;;;;;;;;;;29.30;97.60;;;;;;5079403;28;19973;-82
2021/09/10 06:12:24;;;;;;;;;;;28.10;99.90;;;;;;5079672;28;20372;-82
2021/09/10 06:14:50;;;;;;;;;;;27.20;99.90;;;;;;5079177;28;20002;-81
2021/09/10 06:17:16;;;;;;;;;;;26.50;99.90;;;;;;5078043;28;19915;-81
2021/09/10 06:19:41;;;;;;;;;;;26.00;99.90;;;;;;5078628;28;19915;-82
2021/09/10 06:22:07;;;;;;;;;;;25.50;99.90;;;;;;5077554;28;20338;-81
2021/09/10 06:24:32;;;;;;;;;;;25.10;99.90;;;;;;5078567;28;19912;-81
2021/09/10 06:26:57;;;;;;;;;;;24.80;99.90;;;;;;5077503;28;19909;-81
2021/09/10 06:29:23;;;;;;;;;;;24.40;99.90;;;;;;5078607;28;19955;-82
2021/09/10 06:31:50;;;;;;;;;;;24.20;99.90;;;;;;5077442;28;20291;-81
2021/09/10 06:34:20;;;;;;;;;;;24.00;99.90;;;;;;5073682;28;20412;-81
2021/09/10 06:36:47;;;;;;;;;;;23.70;99.90;;;;;;5075203;28;19952;-81
2021/09/10 06:39:13;;;;;;;;;;;23.50;99.90;;;;;;5074636;28;19913;-81
2021/09/10 06:41:38;;;;;;;;;;;23.40;99.90;;;;;;5075340;28;19969;-81
2021/09/10 06:44:04;;;;;;;;;;;23.20;99.90;;;;;;5074601;28;19993;-81
2021/09/10 06:46:29;;;;;;;;;;;23.10;99.90;;;;;;5074871;28;19908;-80
2021/09/10 06:48:54;;;;;;;;;;;23.00;99.90;;;;;;5073263;28;19912;-80
2021/09/10 06:51:20;;;;;;;;;;;22.90;99.90;;;;;;5073134;28;19915;-81
2021/09/10 06:53:45;;;;;;;;;;;22.80;99.90;;;;;;5073365;28;19908;-81
2021/09/10 06:56:11;;;;;;;;;;;22.80;99.90;;;;;;5074649;28;20348;-81
2021/09/10 06:58:36;;;;;;;;;;;22.70;99.90;;;;;;5074550;28;19974;-80
2021/09/10 07:01:03;;;;;;;;;;;22.70;99.90;;;;;;5072899;28;19928;-81
2021/09/10 07:03:28;;;;;;;;;;;22.60;99.90;;;;;;5074748;28;19908;-80
2021/09/10 07:05:54;;;;;;;;;;;22.60;99.90;;;;;;5074444;28;20344;-81
2021/09/10 07:08:19;;;;;;;;;;;22.60;99.90;;;;;;5074584;28;19908;-81
2021/09/10 07:10:45;;;;;;;;;;;22.50;99.90;;;;;;5072626;28;19917;-81
2021/09/10 07:13:10;;;;;;;;;;;22.50;99.90;;;;;;5074905;28;19995;-81
2021/09/10 07:15:36;;;;;;;;;;;22.50;99.90;;;;;;5074732;28;19908;-81
2021/09/10 07:18:01;;;;;;;;;;;22.50;99.90;;;;;;5074782;28;19908;-82
2021/09/10 07:20:27;;;;;;;;;;;22.50;99.90;;;;;;5075706;28;19915;-80
2021/09/10 07:22:52;;;;;;;;;;;22.50;99.90;;;;;;5079562;28;19959;-82
2021/09/10 07:25:18;;;;;;;;;;;22.50;99.90;;;;;;5077864;28;19908;-81
2021/09/10 07:27:43;;;;;;;;;;;22.60;99.90;;;;;;5077717;28;20009;-81
2021/09/10 07:30:09;;;;;;;;;;;22.80;99.90;;;;;;5077034;28;20407;-81
2021/09/10 07:32:34;;;;;;;;;;;22.90;99.90;;;;;;5077882;28;19909;-81
2021/09/10 07:35:00;;;;;;;;;;;23.20;99.90;;;;;;5077954;28;19913;-81
2021/09/10 07:37:30;;;;;;;;;;;23.60;99.90;;;;;;5077735;28;19919;-81
2021/09/10 07:39:55;;;;;;;;;;;23.90;99.90;;;;;;5076878;28;19923;-81
2021/09/10 07:42:21;;;;;;;;;;;25.10;99.90;;;;;;5077491;28;19908;-81
2021/09/10 07:44:46;;;;;;;;;;;25.70;99.90;;;;;;5077779;28;19908;-81
2021/09/10 07:47:12;;;;;;;;;;;26.20;99.90;;;;;;5078410;28;19921;-82
2021/09/10 07:49:38;;;;;;;;;;;26.80;99.90;;;;;;5075939;28;19983;-81
2021/09/10 07:52:03;;;;;;;;;;;28.30;99.90;;;;;;5078110;28;19980;-82
2021/09/10 07:54:29;;;;;;;;;;;28.80;99.90;;;;;;5077852;28;19908;-81
2021/09/10 07:56:54;;;;;;;;;;;28.80;99.90;;;;;;5076626;28;19908;-82
2021/09/10 07:59:20;;;;;;;;;;;28.50;99.90;;;;;;5077034;28;19962;-81
2021/09/10 08:01:45;;;;;;;;;;;28.30;99.90;;;;;;5077509;28;19909;-82
2021/09/10 08:04:10;;;;;;;;;;;28.20;99.90;;;;;;5077585;28;19908;-82
2021/09/10 08:06:37;;;;;;;;;;;28.30;99.90;;;;;;5076456;28;19908;-82
2021/09/10 08:09:03;;;;;;;;;;;28.40;99.90;;;;;;5076757;28;19931;-81
2021/09/10 08:11:29;;;;;;;;;;;28.40;99.90;;;;;;5072548;28;19924;-82
2021/09/10 08:13:56;;;;;;;;;;;28.40;99.90;;;;;;5074714;28;19908;-81
2021/09/10 08:16:21;;;;;;;;;;;28.40;99.90;;;;;;5074839;28;20010;-81
2021/09/10 08:18:46;;;;;;;;;;;28.30;99.90;;;;;;5075404;28;19943;-81
2021/09/10 08:21:12;;;;;;;;;;;28.10;99.90;;;;;;5078078;28;19966;-82
2021/09/10 08:23:37;;;;;;;;;;;27.90;99.90;;;;;;5076776;28;19917;-82
2021/09/10 08:26:03;;;;;;;;;;;27.80;99.90;;;;;;5075182;28;19995;-81
2021/09/10 08:28:28;;;;;;;;;;;27.50;99.90;;;;;;5074812;28;20292;-82
2021/09/10 08:30:54;;;;;;;;;;;27.30;99.90;;;;;;5074129;28;19909;-82
2021/09/10 08:33:20;;;;;;;;;;;27.00;99.90;;;;;;5078557;28;19909;-81
2021/09/10 08:35:45;;;;;;;;;;;26.70;99.90;;;;;;5074485;28;19908;-82
2021/09/10 08:38:11;;;;;;;;;;;26.40;99.90;;;;;;5074823;28;19908;-82
2021/09/10 08:40:36;;;;;;;;;;;26.20;99.90;;;;;;5074148;28;19962;-82
2021/09/10 08:43:02;;;;;;;;;;;26.00;99.90;;;;;;5073705;28;20007;-82
2021/09/10 08:45:28;;;;;;;;;;;25.80;99.90;;;;;;5074705;28;20198;-82
2021/09/10 08:47:54;;;;;;;;;;;25.50;99.90;;;;;;5074510;28;19908;-82
2021/09/10 08:50:20;;;;;;;;;;;25.30;99.90;;;;;;5075911;28;20354;-82
2021/09/10 08:52:45;;;;;;;;;;;25.10;99.90;;;;;;5078101;28;19908;-82
2021/09/10 08:55:12;;;;;;;;;;;24.90;99.90;;;;;;5077339;28;20007;-82
2021/09/10 08:57:47;;;;;;;;;;;24.80;99.90;;;;;;5077728;28;20356;-82
2021/09/10 09:00:13;;;;;;;;;;;24.70;99.90;;;;;;5085267;28;19897;-82
2021/09/10 09:02:39;;;;;;;;;;;24.60;99.90;;;;;;5082682;28;19916;-83
2021/09/10 09:05:04;;;;;;;;;;;24.50;99.90;;;;;;5083355;28;19947;-83
2021/09/10 09:07:30;;;;;;;;;;;24.50;99.90;;;;;;5082400;28;19916;-83
2021/09/10 09:09:57;;;;;;;;;;;24.40;99.90;;;;;;5082973;28;19982;-83
2021/09/10 09:12:29;;;;;;;;;;;24.40;99.90;;;;;;5083572;28;19912;-82
2021/09/10 09:14:55;;;;;;;;;;;24.30;99.90;;;;;;5082256;28;19908;-82
2021/09/10 09:17:23;;;;;;;;;;;24.30;99.90;;;;;;5083180;28;19909;-82
2021/09/10 09:20:07;;;;;;;;;;;24.20;99.90;;;;;;5083254;28;19909;-83
2021/09/10 09:22:50;;;;;;;;;;;24.20;99.90;;;;;;5083373;28;20368;-83
2021/09/10 09:25:15;;;;;;;;;;;24.40;99.90;;;;;;5082500;28;19978;-82
2021/09/10 09:27:41;;;;;;;;;;;24.80;99.90;;;;;;5083326;28;20372;-83
2021/09/10 09:30:06;;;;;;;;;;;25.10;99.90;;;;;;5083519;28;19912;-83
2021/09/10 09:32:45;;;;;;;;;;;25.30;99.90;;;;;;5082029;28;19954;-82
2021/09/10 09:35:11;;;;;;;;;;;25.30;99.90;;;;;;5083363;28;19908;-83
2021/09/10 09:37:36;;;;;;;;;;;25.40;99.90;;;;;;5082941;28;19909;-83
2021/09/10 09:40:02;;;;;;;;;;;25.70;99.90;;;;;;5082972;28;19915;-83
2021/09/10 09:42:29;;;;;;;;;;;26.50;99.90;;;;;;5081675;28;19915;-82
2021/09/10 09:45:26;;;;;;;;;;;27.30;99.90;;;;;;5080282;28;19915;-82
2021/09/10 09:47:52;;;;;;;;;;;28.30;99.90;;;;;;5053944;28;19912;-82
2021/09/10 09:50:19;;;;;;;;;;;29.00;99.90;;;;;;5074057;28;19973;-82
2021/09/10 09:52:48;;;;;;;;;;;29.10;99.90;;;;;;5075942;28;19937;-82
2021/09/10 09:55:14;;;;;;;;;;;29.00;99.90;;;;;;5075687;28;20006;-82
2021/09/10 09:57:39;;;;;;;;;;;28.70;99.90;;;;;;5077180;28;19998;-82
2021/09/10 10:00:06;;;;;;;;;;;28.60;99.90;;;;;;5075500;28;20372;-82
2021/09/10 10:02:32;;;;;;;;;;;28.60;99.90;;;;;;5075120;28;19913;-81
2021/09/10 10:04:58;;;;;;;;;;;28.60;99.90;;;;;;5075511;28;19931;-82
2021/09/10 10:07:25;;;;;;;;;;;28.70;99.90;;;;;;5075817;28;19909;-82
2021/09/10 10:09:51;;;;;;;;;;;28.70;99.90;;;;;;5075219;28;19912;-82
2021/09/10 10:12:21;;;;;;;;;;;28.60;99.90;;;;;;5075853;28;19919;-81
2021/09/10 10:14:47;;;;;;;;;;;28.40;99.90;;;;;;5075396;28;19931;-82
2021/09/10 10:17:30;;;;;;;;;;;28.30;99.90;;;;;;5076639;28;19913;-82
2021/09/10 10:19:55;;;;;;;;;;;28.30;99.90;;;;;;5075871;28;19908;-82
2021/09/10 10:22:34;;;;;;;;;;;28.30;99.90;;;;;;5075761;28;19915;-82
2021/09/10 10:25:01;;;;;;;;;;;28.40;99.90;;;;;;5075778;28;19913;-82
2021/09/10 10:27:29;;;;;;;;;;;28.40;99.90;;;;;;5075635;28;19920;-82
2021/09/10 10:29:54;;;;;;;;;;;28.20;99.90;;;;;;5074405;28;19966;-81
2021/09/10 10:32:33;;;;;;;;;;;28.00;99.90;;;;;;5074915;28;19912;-81
2021/09/10 10:35:14;;;;;;;;;;;27.70;99.90;;;;;;5075398;28;20403;-81
2021/09/10 10:37:42;;;;;;;;;;;27.60;99.90;;;;;;5080062;28;19957;-82
2021/09/10 10:40:22;;;;;;;;;;;27.60;99.90;;;;;;5078662;28;19916;-82
2021/09/10 10:42:51;;;;;;;;;;;27.70;99.90;;;;;;5079607;28;20304;-82
2021/09/10 10:45:37;;;;;;;;;;;27.90;99.90;;;;;;5077747;28;19915;-82
2021/09/10 10:48:02;;;;;;;;;;;28.20;99.90;;;;;;5079001;28;19912;-82
2021/09/10 10:50:31;;;;;;;;;;;28.50;99.90;;;;;;5079676;28;19912;-82
2021/09/10 10:52:57;;;;;;;;;;;28.90;99.90;;;;;;5080090;28;19908;-82
2021/09/10 10:55:29;;;;;;;;;;;29.40;99.90;;;;;;5083005;28;19956;-83
2021/09/10 10:58:15;;;;;;;;;;;30.00;99.90;;;;;;5081539;28;20322;-82
2021/09/10 11:00:45;;;;;;;;;;;30.80;99.90;;;;;;5078624;28;20258;-83
2021/09/10 11:03:14;;;;;;;;;;;31.60;99.90;;;;;;5081434;28;19909;-83
2021/09/10 11:05:40;;;;;;;;;;;31.80;99.90;;;;;;5082152;28;19912;-83
2021/09/10 11:08:05;;;;;;;;;;;31.90;99.90;;;;;;5081820;28;19980;-81
2021/09/10 11:10:31;;;;;;;;;;;31.80;99.90;;;;;;5083903;28;19924;-81
2021/09/10 11:12:57;;;;;;;;;;;31.70;99.90;;;;;;5085613;28;19953;-81
2021/09/10 11:15:24;;;;;;;;;;;31.40;99.90;;;;;;5080168;28;19916;-81
2021/09/10 11:17:54;;;;;;;;;;;30.90;99.90;;;;;;5080405;28;19908;-81
2021/09/10 11:20:25;;;;;;;;;;;30.50;99.90;;;;;;5079007;28;19991;-80
2021/09/10 11:22:50;;;;;;;;;;;30.10;99.90;;;;;;5080018;28;19915;-81
2021/09/10 11:25:16;;;;;;;;;;;29.70;99.90;;;;;;5076469;28;20380;-80
2021/09/10 11:27:41;;;;;;;;;;;29.30;99.90;;;;;;5074881;28;19912;-80
2021/09/10 11:30:08;;;;;;;;;;;28.80;99.90;;;;;;5074307;28;20356;-80
2021/09/10 11:32:34;;;;;;;;;;;28.40;99.90;;;;;;5074728;28;19995;-80
2021/09/10 11:34:59;;;;;;;;;;;28.00;99.90;;;;;;5074195;28;20407;-80
2021/09/10 11:37:31;;;;;;;;;;;27.70;99.90;;;;;;5075171;28;19970;-80
2021/09/10 11:39:57;;;;;;;;;;;27.40;99.90;;;;;;5074361;28;20353;-80
2021/09/10 11:42:36;;;;;;;;;;;27.10;99.90;;;;;;5074041;28;19919;-80
2021/09/10 11:45:08;;;;;;;;;;;26.90;99.90;;;;;;5075674;28;19941;-80
2021/09/10 11:47:33;;;;;;;;;;;26.70;99.90;;;;;;5074967;28;19916;-80
2021/09/10 11:49:59;;;;;;;;;;;26.80;99.90;;;;;;5075913;28;20380;-80
2021/09/10 11:52:35;;;;;;;;;;;27.50;99.90;;;;;;5076288;28;19920;-80
2021/09/10 11:55:11;;;;;;;;;;;28.20;99.90;;;;;;5077304;28;20014;-81
2021/09/10 11:57:37;;;;;;;;;;;28.90;99.90;;;;;;5077706;28;20087;-81
2021/09/10 12:00:03;;;;;;;;;;;29.20;99.90;;;;;;5078971;28;19971;-81
2021/09/10 12:02:29;;;;;;;;;;;29.20;99.90;;;;;;5078088;28;20399;-81
2021/09/10 12:04:55;;;;;;;;;;;29.10;99.90;;;;;;5079432;28;19908;-81
2021/09/10 12:07:31;;;;;;;;;;;29.10;99.90;;;;;;5079381;28;19914;-81
2021/09/10 12:09:57;;;;;;;;;;;29.10;99.90;;;;;;5078975;28;19923;-81
2021/09/10 12:12:24;;;;;;;;;;;29.50;99.90;;;;;;5077466;28;20440;-80
2021/09/10 12:14:52;;;;;;;;;;;30.20;99.90;;;;;;5078595;28;19915;-80
2021/09/10 12:17:21;;;;;;;;;;;31.20;99.90;;;;;;5078591;28;19968;-80
2021/09/10 12:19:49;;;;;;;;;;;31.90;99.90;;;;;;5077109;28;20285;-81
2021/09/10 12:22:44;;;;;;;;;;;33.10;99.90;;;;;;5076182;28;19915;-80
2021/09/10 12:25:20;;;;;;;;;;;33.90;99.90;;;;;;5070307;28;19908;-80
2021/09/10 12:27:46;;;;;;;;;;;34.80;98.00;;;;;;5080441;28;19935;-81
2021/09/10 12:30:13;;;;;;;;;;;35.40;96.60;;;;;;5081472;28;19920;-80
2021/09/10 12:32:39;;;;;;;;;;;35.60;95.30;;;;;;5081432;28;19912;-81
2021/09/10 12:35:04;;;;;;;;;;;35.90;93.90;;;;;;5081110;28;19909;-81
2021/09/10 12:37:30;;;;;;;;;;;36.20;92.50;;;;;;5081728;28;20391;-80
2021/09/10 12:39:55;;;;;;;;;;;35.90;90.00;;;;;;5080445;28;19908;-80
2021/09/10 12:42:21;;;;;;;;;;;36.00;88.10;;;;;;5080478;28;19919;-80
2021/09/10 12:44:46;;;;;;;;;;;36.20;84.00;;;;;;5081317;28;19916;-80
2021/09/10 12:47:12;;;;;;;;;;;36.50;82.10;;;;;;5081133;28;19935;-80
2021/09/10 12:49:37;;;;;;;;;;;37.20;76.90;;;;;;5080800;28;20057;-81
2021/09/10 12:52:03;;;;;;;;;;;37.20;75.20;;;;;;5081040;28;19943;-81
2021/09/10 12:54:29;;;;;;;;;;;37.50;73.20;;;;;;5080981;28;19908;-81
2021/09/10 12:56:54;;;;;;;;;;;37.30;72.10;;;;;;5081130;28;20334;-80
2021/09/10 12:59:20;;;;;;;;;;;36.70;70.70;;;;;;5080768;28;20222;-80
2021/09/10 13:01:45;;;;;;;;;;;36.00;72.20;;;;;;5079439;28;19955;-81
2021/09/10 13:04:10;;;;;;;;;;;35.20;73.80;;;;;;5079340;28;19919;-80
2021/09/10 13:06:36;;;;;;;;;;;34.40;75.10;;;;;;5077607;28;19908;-80
2021/09/10 13:09:01;;;;;;;;;;;33.70;77.70;;;;;;5077636;28;19974;-80
2021/09/10 13:11:27;;;;;;;;;;;33.00;80.50;;;;;;5077265;28;19917;-80
2021/09/10 13:13:52;;;;;;;;;;;32.40;83.00;;;;;;5077417;28;19988;-80
2021/09/10 13:16:18;;;;;;;;;;;32.00;85.60;;;;;;5078037;28;19908;-80
2021/09/10 13:18:43;;;;;;;;;;;31.50;87.20;;;;;;5077138;28;20372;-79
2021/09/10 13:21:09;;;;;;;;;;;31.00;88.10;;;;;;5076748;28;20344;-80
2021/09/10 13:23:34;;;;;;;;;;;30.50;88.10;;;;;;5076235;28;19915;-80
2021/09/10 13:26:00;;;;;;;;;;;29.90;90.10;;;;;;5077197;28;19909;-80
2021/09/10 13:28:25;;;;;;;;;;;29.50;90.90;;;;;;5075515;28;19913;-80
2021/09/10 13:30:51;;;;;;;;;;;29.30;91.80;;;;;;5076077;28;19919;-79
2021/09/10 13:33:16;;;;;;;;;;;29.10;92.40;;;;;;5077333;28;19928;-79
2021/09/10 13:35:42;;;;;;;;;;;29.10;93.00;;;;;;5077637;28;19913;-80
2021/09/10 13:38:08;;;;;;;;;;;29.10;93.40;;;;;;5076938;28;19961;-80
2021/09/10 13:40:33;;;;;;;;;;;29.00;94.00;;;;;;5076504;28;19915;-80
2021/09/10 13:42:59;;;;;;;;;;;28.70;94.90;;;;;;5076737;28;20261;-80
2021/09/10 13:45:24;;;;;;;;;;;28.50;95.90;;;;;;5076974;28;19908;-80
2021/09/10 13:47:50;;;;;;;;;;;28.30;96.00;;;;;;5077714;28;19912;-80
2021/09/10 13:50:16;;;;;;;;;;;28.10;97.00;;;;;;5076729;28;19934;-80
2021/09/10 13:52:41;;;;;;;;;;;28.00;97.60;;;;;;5078230;28;19912;-79
2021/09/10 13:55:07;;;;;;;;;;;28.00;98.20;;;;;;5080898;28;19995;-80
2021/09/10 13:57:32;;;;;;;;;;;28.00;96.90;;;;;;5080448;28;20287;-80
2021/09/10 13:59:58;;;;;;;;;;;27.90;95.70;;;;;;5081510;28;19913;-81
2021/09/10 14:02:23;;;;;;;;;;;27.70;95.10;;;;;;5085262;28;19944;-81
2021/09/10 14:04:48;;;;;;;;;;;27.40;95.50;;;;;;5084861;28;19915;-81
2021/09/10 14:07:14;;;;;;;;;;;27.10;97.20;;;;;;5080684;28;19975;-80
2021/09/10 14:09:39;;;;;;;;;;;26.80;99.50;;;;;;5079995;28;19913;-81
2021/09/10 14:12:05;;;;;;;;;;;26.60;99.90;;;;;;5080072;28;19912;-80